Aérodrome :
LOGIN :

S'inscrire | Disclaimer

   EN    FR    IT 

 










Légende :    VFR   VFR Marginal   IFR   IFR Intensif   IFR Très Intensif
Visi : 
Plafond : 
>= 8 km
>= 3000ft
5 à 8 km
1000 à 3000 ft
1500m à 5 km
500 à 1000 ft
800 à 1500m
200 à 500 ft
< 800m
< 200 ft
Symboles :   Orages  Brouillard  Fortes neiges  Fortes précipitations  Vent > 20 kt
SIGMETs :   Divers  Orages  Givrage  Turbulence  Onde Orograph.  Cendres Volcan.






- Altitude de l'aérodrome : 1989 ft
- Code IATA : KLV


LKKV - Karlovy Vary

DERNIER METAR :
  • 210100Z 30012KT 9999 BKN023 M04/M08 Q1023

METARs EXPIRÉS :
  • 210000Z 29012KT 9999 BKN026 M04/M08 Q1022
  • 202300Z 29014KT 9999 BKN020 M04/M08 Q1021

TAF TAF LKKV
Valide du 21 à 00h jusqu'au 22 à 06h UTC


202300Z 2100/2206 27014KT 9999 SCT015
TEMPO 2100/2119 4000 SHSN BKN006
TEMPO 2112/2206 30016G26KT
BECMG 2119/2121 6000 -SN BKN011
TEMPO 2121/2203 2500 SN BKN005
PROB30
TEMPO 2123/2203 1200 SN BKN003
TEMPO 2203/2206 2500 RASN BKN005



MET'MAP, la Météo Aéronautique d'un coup d'oeil ! - Copyright ORBIFLY Décembre 2007 - Disclaimer

ORBIFLY MET'MAP TEAM :

Programmation & Développement : Alexandra Zaïnal
Sur une idée originale de : Baudouin d'Aumeries
Assistance à la programmation : Marc-Olivier Méhu
Soutien technique & logistique : Manuel Goepfert

Contact : metmap@orbifly.com




SOURCES & CREDITS :

   NOAA